Time;durP1;ratioP1;P1;durP2;ratioP2;P2;SDS_P1;SDS_P2;PMS_P1;PMS_P2;Temp;Humidity;BMP_temperature;BMP_pressure;BME280_temperature;BME280_humidity;BME280_pressure;Samples;Min_cycle;Max_cycle;Signal;HPM_P1;HPM_P2
2021/12/30 00:00:26;;;;;;;48.75;22.27;;;;;;;-1.29;75.36;100783.20;1759964;81;21237;-56
2021/12/30 00:03:32;;;;;;;44.55;21.25;;;;;;;-1.29;75.63;100786.76;1761125;81;21285;-54
2021/12/30 00:06:41;;;;;;;44.15;22.52;;;;;;;-1.25;75.76;100788.79;1749511;81;21217;-54
2021/12/30 00:09:49;;;;;;;42.98;21.35;;;;;;;-1.19;75.97;100794.62;1738565;82;21870;-54
2021/12/30 00:12:57;;;;;;;47.45;22.58;;;;;;;-1.10;76.04;100794.56;1701022;84;21246;-54
2021/12/30 00:16:07;;;;;;;48.55;22.75;;;;;;;-1.01;76.07;100799.37;1696875;83;21850;-53
2021/12/30 00:19:14;;;;;;;46.58;23.20;;;;;;;-0.92;76.04;100794.80;1695403;84;21295;-53
2021/12/30 00:22:20;;;;;;;50.90;25.60;;;;;;;-0.89;75.86;100795.48;1671454;84;21280;-53
2021/12/30 00:25:25;;;;;;;46.02;22.35;;;;;;;-0.85;75.77;100797.02;1739083;81;21386;-53
2021/12/30 00:28:31;;;;;;;48.52;23.67;;;;;;;-0.85;75.60;100797.02;1683932;84;21244;-54
2021/12/30 00:31:36;;;;;;;46.70;23.20;;;;;;;-0.88;75.48;100790.95;1698230;84;21597;-54
2021/12/30 00:34:41;;;;;;;45.73;21.93;;;;;;;-0.85;75.58;100793.45;1739607;81;21828;-54
2021/12/30 00:37:48;;;;;;;46.28;22.82;;;;;;;-0.82;75.53;100792.80;1756537;80;21161;-52
2021/12/30 00:40:54;;;;;;;49.20;23.95;;;;;;;-0.77;75.46;100803.25;1747481;81;21406;-55
2021/12/30 00:44:00;;;;;;;48.50;25.00;;;;;;;-0.77;75.31;100793.84;1743654;80;21275;-52
2021/12/30 00:47:06;;;;;;;47.93;25.97;;;;;;;-0.80;75.17;100794.04;1746624;81;21811;-52
2021/12/30 00:50:12;;;;;;;50.78;25.75;;;;;;;-0.83;75.17;100802.30;1754162;81;21351;-53
2021/12/30 00:53:20;;;;;;;47.98;23.62;;;;;;;-0.83;75.18;100795.58;1760942;81;21327;-54
2021/12/30 00:56:26;;;;;;;45.95;23.70;;;;;;;-0.82;75.21;100800.86;1751398;79;21916;-55
2021/12/30 00:59:33;;;;;;;43.15;22.80;;;;;;;-0.87;75.17;100798.08;1797725;80;21429;-53
2021/12/30 01:02:38;;;;;;;46.70;22.77;;;;;;;-0.88;75.16;100805.27;1812094;79;21217;-54
2021/12/30 01:05:45;;;;;;;46.35;22.67;;;;;;;-0.92;75.29;100805.05;1817544;79;21218;-52
2021/12/30 01:08:53;;;;;;;49.48;25.08;;;;;;;-0.87;75.48;100805.64;1818148;79;21327;-53
2021/12/30 01:11:59;;;;;;;44.67;22.37;;;;;;;-0.80;75.59;100823.60;1799739;79;21214;-52
2021/12/30 01:15:08;;;;;;;45.60;22.10;;;;;;;-0.76;75.46;100813.91;1817537;78;21202;-54
2021/12/30 01:19:01;;;;;;;45.23;23.27;;;;;;;-0.73;75.38;100818.25;1818081;79;21304;-54
2021/12/30 01:21:22;;;;;;;40.90;21.20;;;;;;;-0.70;75.27;100824.78;1808911;79;21268;-53
2021/12/30 01:24:27;;;;;;;46.18;23.70;;;;;;;-0.74;74.99;100818.72;1818019;79;21742;-55
2021/12/30 01:27:40;;;;;;;43.70;24.20;;;;;;;-0.74;75.11;100822.75;1818025;79;21227;-53
2021/12/30 01:30:45;;;;;;;43.38;21.42;;;;;;;-0.72;75.07;100816.81;1817935;79;21256;-54
2021/12/30 01:33:54;;;;;;;45.63;24.92;;;;;;;-0.71;75.06;100817.19;1794498;79;21327;-54
2021/12/30 01:37:02;;;;;;;53.17;26.60;;;;;;;-0.71;75.03;100817.19;1817968;79;21212;-57
2021/12/30 01:40:11;;;;;;;49.48;25.75;;;;;;;-0.72;74.98;100816.81;1792111;80;21468;-53
2021/12/30 01:43:15;;;;;;;57.05;32.93;;;;;;;-0.73;74.97;100815.56;1792207;80;21448;-54
2021/12/30 01:46:22;;;;;;;80.38;48.87;;;;;;;-0.75;74.90;100820.16;1792266;79;21175;-53
2021/12/30 01:49:31;;;;;;;59.93;32.00;;;;;;;-0.74;75.10;100820.53;1801030;78;21179;-54
2021/12/30 01:52:40;;;;;;;49.75;25.72;;;;;;;-0.70;75.18;100828.81;1796366;77;21184;-53
2021/12/30 01:55:47;;;;;;;44.53;23.83;;;;;;;-0.69;75.14;100824.68;1789908;78;21269;-53
2021/12/30 01:58:54;;;;;;;43.50;22.77;;;;;;;-0.66;75.11;100830.33;1794615;79;21293;-53
2021/12/30 02:02:00;;;;;;;38.38;21.42;;;;;;;-0.68;74.95;100828.24;1800249;79;21253;-53
2021/12/30 02:05:09;;;;;;;40.25;21.40;;;;;;;-0.70;74.93;100824.27;1801013;78;21622;-54
2021/12/30 02:08:18;;;;;;;38.30;20.55;;;;;;;-0.67;74.87;100833.52;1800460;78;21195;-54
2021/12/30 02:11:27;;;;;;;39.53;22.07;;;;;;;-0.75;74.65;100827.75;1773078;79;21929;-53
2021/12/30 02:14:34;;;;;;;43.75;23.27;;;;;;;-0.76;74.90;100825.16;1800424;78;21249;-54
2021/12/30 02:17:39;;;;;;;44.42;23.30;;;;;;;-0.75;74.98;100822.38;1800331;79;21605;-53
2021/12/30 02:21:02;;;;;;;44.60;23.87;;;;;;;-0.69;75.13;100823.34;1800443;79;21235;-53
2021/12/30 02:24:10;;;;;;;44.23;25.25;;;;;;;-0.66;75.00;100833.02;1800525;79;21225;-53
2021/12/30 02:27:17;;;;;;;43.42;24.07;;;;;;;-0.66;74.93;100829.86;1774767;79;21292;-53
2021/12/30 02:30:23;;;;;;;45.63;26.25;;;;;;;-0.64;74.98;100833.33;1775174;79;22154;-53
2021/12/30 02:33:32;;;;;;;42.13;23.62;;;;;;;-0.60;74.98;100831.30;1802476;78;21373;-54
2021/12/30 02:36:40;;;;;;;48.73;25.20;;;;;;;-0.60;74.71;100830.83;1801122;78;21317;-52
2021/12/30 02:39:50;;;;;;;47.60;25.05;;;;;;;-0.63;74.68;100832.83;1801198;78;21202;-54
2021/12/30 02:42:54;;;;;;;44.20;24.50;;;;;;;-0.64;74.77;100837.36;1800424;79;21192;-54
2021/12/30 02:45:59;;;;;;;45.20;25.45;;;;;;;-0.64;74.75;100836.02;1800447;78;21221;-53
2021/12/30 02:49:06;;;;;;;50.80;26.77;;;;;;;-0.65;74.70;100834.77;1802041;78;21380;-54
2021/12/30 02:52:12;;;;;;;45.88;24.95;;;;;;;-0.68;74.62;100843.03;1800566;79;21194;-54
2021/12/30 02:55:17;;;;;;;46.25;24.30;;;;;;;-0.69;74.76;100843.96;1800589;79;21221;-54
2021/12/30 02:58:23;;;;;;;45.83;25.68;;;;;;;-0.68;74.66;100849.75;1774286;79;21830;-53
2021/12/30 03:01:33;;;;;;;44.90;24.90;;;;;;;-0.67;74.70;100847.44;1789216;78;21720;-54
2021/12/30 03:04:39;;;;;;;46.20;23.80;;;;;;;-0.65;74.71;100853.59;1769492;79;21282;-54
2021/12/30 03:07:45;;;;;;;49.93;24.00;;;;;;;-0.64;74.77;100851.27;1789314;80;21195;-54
2021/12/30 03:10:52;;;;;;;42.40;24.10;;;;;;;-0.62;74.70;100856.09;1789088;80;21210;-54
2021/12/30 03:13:59;;;;;;;49.18;24.63;;;;;;;-0.61;74.59;100867.21;1789293;80;21199;-54
2021/12/30 03:17:07;;;;;;;45.65;23.57;;;;;;;-0.60;74.51;100866.23;1788792;80;21367;-53
2021/12/30 03:20:14;;;;;;;44.15;23.32;;;;;;;-0.63;74.37;100873.15;1788947;80;21267;-53
2021/12/30 03:23:19;;;;;;;43.30;23.85;;;;;;;-0.68;74.27;100862.69;1789042;80;21322;-53
2021/12/30 03:26:24;;;;;;;45.40;23.65;;;;;;;-0.70;74.24;100871.31;1789112;79;21204;-53
2021/12/30 03:29:33;;;;;;;48.17;24.15;;;;;;;-0.73;74.17;100872.00;1788865;80;21199;-52
2021/12/30 03:32:41;;;;;;;47.40;24.90;;;;;;;-0.75;74.35;100864.50;1788972;80;21429;-54
2021/12/30 03:35:48;;;;;;;46.15;26.50;;;;;;;-0.76;74.39;100874.37;1789070;80;21215;-55
2021/12/30 03:38:57;;;;;;;53.90;27.35;;;;;;;-0.79;74.38;100888.00;1789095;80;21309;-52
2021/12/30 03:42:01;;;;;;;44.98;26.12;;;;;;;-0.81;74.40;100887.72;1789093;80;21352;-54
2021/12/30 03:45:07;;;;;;;46.88;27.15;;;;;;;-0.80;74.44;100889.44;1789109;80;21475;-52
2021/12/30 03:48:14;;;;;;;48.80;25.72;;;;;;;-0.77;74.61;100894.63;1789463;80;21843;-53
2021/12/30 03:51:25;;;;;;;48.73;24.32;;;;;;;-0.70;74.65;100899.53;1789398;80;21361;-53
2021/12/30 03:54:30;;;;;;;42.90;23.92;;;;;;;-0.66;74.60;100898.41;1789419;80;21334;-53
2021/12/30 03:57:36;;;;;;;44.63;23.27;;;;;;;-0.66;74.41;100893.03;1789490;80;21349;-52
2021/12/30 04:00:42;;;;;;;45.28;22.95;;;;;;;-0.66;74.31;100898.88;1794410;78;21321;-54
2021/12/30 04:03:47;;;;;;;48.02;26.85;;;;;;;-0.67;74.12;100895.81;1800490;78;21336;-55
2021/12/30 04:07:00;;;;;;;44.77;22.32;;;;;;;-0.72;74.01;100896.56;1800641;79;21687;-55
2021/12/30 04:10:05;;;;;;;39.80;22.13;;;;;;;-0.70;74.23;100902.72;1800639;79;21289;-55
2021/12/30 04:13:10;;;;;;;40.23;21.00;;;;;;;-0.70;74.11;100905.41;1801463;78;21383;-54
2021/12/30 04:16:15;;;;;;;38.88;21.07;;;;;;;-0.72;74.17;100900.12;1800528;79;21218;-52
2021/12/30 04:19:23;;;;;;;36.90;22.00;;;;;;;-0.77;74.13;100902.22;1800591;79;21848;-53
2021/12/30 04:22:30;;;;;;;38.15;21.00;;;;;;;-0.80;74.21;100900.19;1800783;79;21250;-53
2021/12/30 04:25:35;;;;;;;37.67;21.23;;;;;;;-0.82;74.21;100908.81;1800792;78;21303;-53
2021/12/30 04:28:44;;;;;;;41.50;22.82;;;;;;;-0.86;74.29;100908.63;1800830;79;21195;-53
2021/12/30 04:31:56;;;;;;;42.48;23.12;;;;;;;-0.89;74.26;100908.81;1800154;78;21570;-54
2021/12/30 04:35:02;;;;;;;47.27;23.40;;;;;;;-0.94;74.35;100912.23;1800039;79;21726;-53
2021/12/30 04:38:09;;;;;;;42.33;22.02;;;;;;;-0.94;74.31;100912.23;1800607;78;21191;-53
2021/12/30 04:41:13;;;;;;;58.28;24.57;;;;;;;-0.95;74.55;100906.48;1800820;78;21202;-55
2021/12/30 04:44:18;;;;;;;41.53;21.97;;;;;;;-0.97;74.58;100905.23;1768179;80;21318;-54
2021/12/30 04:47:26;;;;;;;44.23;22.48;;;;;;;-0.98;74.43;100901.30;1799800;79;21229;-54
2021/12/30 04:50:32;;;;;;;41.98;21.60;;;;;;;-1.01;74.79;100908.17;1798819;79;21341;-53
2021/12/30 04:53:37;;;;;;;41.75;21.48;;;;;;;-1.01;74.85;100907.70;1800479;78;21210;-53
2021/12/30 04:56:43;;;;;;;42.30;22.25;;;;;;;-0.97;74.99;100920.48;1800689;78;21218;-52
2021/12/30 04:59:52;;;;;;;41.15;22.48;;;;;;;-0.96;74.94;100928.45;1755820;79;21407;-54
2021/12/30 05:03:09;;;;;;;41.90;21.90;;;;;;;-0.94;74.99;100931.05;1789417;79;21370;-53
2021/12/30 05:06:12;;;;;;;46.35;23.70;;;;;;;-0.92;75.04;100936.70;1773973;79;21323;-54
2021/12/30 05:09:18;;;;;;;45.67;23.77;;;;;;;-0.90;75.04;100933.92;1757066;80;21196;-54
2021/12/30 05:12:26;;;;;;;42.25;23.62;;;;;;;-0.83;75.19;100941.56;1767113;81;21351;-54
2021/12/30 05:15:33;;;;;;;39.35;21.60;;;;;;;-0.75;75.16;100950.50;1768073;80;21233;-54
2021/12/30 05:18:41;;;;;;;43.73;22.85;;;;;;;-0.74;74.82;100952.22;1767816;80;21355;-54
2021/12/30 05:21:48;;;;;;;45.43;23.47;;;;;;;-0.84;74.52;100963.99;1780374;79;21462;-54
2021/12/30 05:24:54;;;;;;;50.12;26.30;;;;;;;-0.87;74.68;100960.65;1767372;80;21193;-55
2021/12/30 05:28:06;;;;;;;54.35;28.42;;;;;;;-0.81;74.92;100965.66;1776366;79;21789;-54
2021/12/30 05:31:11;;;;;;;58.35;31.73;;;;;;;-0.74;74.92;100963.84;1773878;79;21293;-55
2021/12/30 05:34:17;;;;;;;50.48;23.67;;;;;;;-0.67;74.79;100953.14;1767863;80;21347;-53
2021/12/30 05:37:22;;;;;;;47.40;24.35;;;;;;;-0.65;74.38;100961.11;1774145;79;21336;-53
2021/12/30 05:40:29;;;;;;;40.85;21.52;;;;;;;-0.69;74.23;100965.80;1769747;79;21438;-55
2021/12/30 05:43:35;;;;;;;41.83;23.18;;;;;;;-0.72;74.14;100970.01;1767230;80;21371;-54
2021/12/30 05:46:40;;;;;;;50.55;26.10;;;;;;;-0.73;74.12;100974.13;1767496;80;21598;-54
2021/12/30 05:49:45;;;;;;;47.15;24.35;;;;;;;-0.68;74.24;100969.36;1786466;79;21841;-54
2021/12/30 05:52:50;;;;;;;47.83;26.73;;;;;;;-0.68;73.95;100972.05;1767186;80;21324;-54
2021/12/30 05:55:59;;;;;;;49.45;25.88;;;;;;;-0.72;73.75;100974.51;1763091;81;21394;-54
2021/12/30 05:59:03;;;;;;;52.78;25.88;;;;;;;-0.71;73.85;100984.30;1769997;80;21711;-55
2021/12/30 06:02:09;;;;;;;52.17;27.02;;;;;;;-0.66;73.96;100991.14;1766443;78;21382;-54
2021/12/30 06:05:15;;;;;;;53.02;26.77;;;;;;;-0.65;73.76;100993.37;1742068;81;21383;-53
2021/12/30 06:08:21;;;;;;;46.80;25.02;;;;;;;-0.63;73.89;100999.50;1754433;80;21710;-54
2021/12/30 06:11:27;;;;;;;51.45;26.27;;;;;;;-0.56;73.75;101012.98;1764196;81;21350;-54
2021/12/30 06:14:34;;;;;;;52.83;27.13;;;;;;;-0.53;73.54;101012.33;1764618;80;21224;-54
2021/12/30 06:17:39;;;;;;;52.53;30.40;;;;;;;-0.51;73.35;101009.54;1761939;79;21192;-54
2021/12/30 06:20:45;;;;;;;52.13;27.27;;;;;;;-0.45;73.23;101023.96;1767065;79;21384;-54
2021/12/30 06:23:50;;;;;;;46.77;23.90;;;;;;;-0.43;73.15;101018.02;1765449;80;21174;-55
2021/12/30 06:26:57;;;;;;;48.73;25.68;;;;;;;-0.41;73.00;101023.69;1732494;82;21630;-53
2021/12/30 06:30:02;;;;;;;47.17;25.97;;;;;;;-0.39;72.86;101016.40;1732561;82;21185;-54
2021/12/30 06:33:07;;;;;;;46.23;23.62;;;;;;;-0.33;72.86;101023.22;1741219;82;21203;-54
2021/12/30 06:36:14;;;;;;;43.40;23.47;;;;;;;-0.29;72.76;101031.04;1770878;79;21294;-55
2021/12/30 06:39:20;;;;;;;69.90;36.53;;;;;;;-0.23;72.64;101032.48;1744649;82;21252;-55
2021/12/30 06:42:26;;;;;;;62.48;31.27;;;;;;;-0.20;72.35;101037.20;1742491;82;21725;-53
2021/12/30 06:45:31;;;;;;;71.53;37.40;;;;;;;-0.18;72.32;101035.77;1732339;82;21205;-53
2021/12/30 06:48:37;;;;;;;90.87;46.20;;;;;;;-0.10;72.36;101032.14;1728439;82;21173;-54
2021/12/30 06:51:43;;;;;;;82.62;42.50;;;;;;;-0.03;72.22;101031.66;1743325;81;21216;-54
2021/12/30 06:54:48;;;;;;;72.37;36.98;;;;;;;0.01;71.92;101025.62;1758049;81;21196;-54
2021/12/30 06:57:55;;;;;;;65.30;34.23;;;;;;;0.05;71.83;101039.27;1755644;80;21582;-53
2021/12/30 07:01:02;;;;;;;65.32;33.83;;;;;;;0.09;71.60;101039.47;1774029;79;21717;-54
2021/12/30 07:04:08;;;;;;;57.83;27.77;;;;;;;0.08;71.34;101036.88;1786980;79;21325;-54
2021/12/30 07:07:13;;;;;;;56.42;26.65;;;;;;;0.07;71.26;101040.04;1783778;79;21802;-55
2021/12/30 07:10:19;;;;;;;62.40;30.88;;;;;;;0.07;71.20;101041.39;1784375;80;21307;-53
2021/12/30 07:13:24;;;;;;;88.82;43.48;;;;;;;0.09;71.03;101043.52;1784816;79;21232;-55
2021/12/30 07:16:30;;;;;;;58.90;28.83;;;;;;;0.11;70.95;101052.37;1786183;80;21218;-54
2021/12/30 07:19:41;;;;;;;67.90;30.70;;;;;;;0.12;70.64;101058.59;1798287;79;21652;-54
2021/12/30 07:22:51;;;;;;;63.17;31.80;;;;;;;0.13;70.62;101054.46;1798648;79;21788;-54
2021/12/30 07:25:58;;;;;;;53.87;28.45;;;;;;;0.18;70.48;101052.83;1799447;79;21212;-55
2021/12/30 07:29:03;;;;;;;53.83;26.23;;;;;;;0.16;70.25;101056.96;1788717;79;21203;-54
2021/12/30 07:32:08;;;;;;;53.20;25.17;;;;;;;0.11;70.15;101068.52;1786956;80;21366;-54
2021/12/30 07:35:14;;;;;;;51.95;25.20;;;;;;;0.08;70.03;101073.22;1787588;79;21199;-54
2021/12/30 07:38:19;;;;;;;50.23;25.68;;;;;;;0.08;70.09;101082.13;1777147;79;21573;-55
2021/12/30 07:41:26;;;;;;;46.45;23.85;;;;;;;0.07;70.08;101080.87;1798053;79;21508;-54
2021/12/30 07:44:34;;;;;;;47.25;24.50;;;;;;;0.09;69.93;101077.16;1806965;79;21173;-54
2021/12/30 07:47:42;;;;;;;49.23;25.80;;;;;;;0.05;69.74;101079.62;1784469;79;21361;-55
2021/12/30 07:50:50;;;;;;;48.95;24.63;;;;;;;0.09;69.89;101086.58;1798080;79;21301;-54
2021/12/30 07:53:54;;;;;;;42.67;22.60;;;;;;;0.16;69.96;101083.88;1773834;79;21190;-54
2021/12/30 07:57:01;;;;;;;54.08;27.13;;;;;;;0.28;70.04;101086.31;1770535;79;21770;-54
2021/12/30 08:00:09;;;;;;;53.42;27.75;;;;;;;0.36;69.78;101089.41;1756392;81;21741;-54
2021/12/30 08:03:14;;;;;;;52.95;27.00;;;;;;;0.39;69.54;101091.91;1731352;82;21264;-54
2021/12/30 08:06:22;;;;;;;49.88;26.23;;;;;;;0.42;69.39;101095.75;1725768;78;21411;-55
2021/12/30 08:09:29;;;;;;;46.55;24.52;;;;;;;0.49;69.26;101098.47;1786783;79;21196;-55
2021/12/30 08:12:35;;;;;;;51.75;26.20;;;;;;;0.54;69.00;101103.09;1760199;79;21248;-53
2021/12/30 08:15:42;;;;;;;55.08;26.93;;;;;;;0.53;68.59;101104.03;1745821;80;21665;-54
2021/12/30 08:18:48;;;;;;;54.80;28.65;;;;;;;0.48;68.35;101104.80;1785038;80;21727;-54
2021/12/30 08:21:53;;;;;;;45.33;25.30;;;;;;;0.44;68.21;101105.96;1784499;80;21206;-53
2021/12/30 08:24:59;;;;;;;50.12;26.60;;;;;;;0.43;68.32;101105.08;1784645;80;21210;-55
2021/12/30 08:28:06;;;;;;;47.10;24.57;;;;;;;0.49;68.46;101108.73;1774317;80;21264;-54
2021/12/30 08:31:10;;;;;;;46.20;24.55;;;;;;;0.58;68.48;101104.15;1784215;80;21269;-56
2021/12/30 08:34:15;;;;;;;53.15;28.07;;;;;;;0.68;68.31;101095.86;1784560;80;21218;-55
2021/12/30 08:37:26;;;;;;;54.15;25.50;;;;;;;0.76;68.10;101105.67;1783228;80;21329;-56
2021/12/30 08:40:31;;;;;;;49.03;25.70;;;;;;;0.79;67.79;101101.47;1786018;80;21341;-54
2021/12/30 08:43:40;;;;;;;46.18;25.62;;;;;;;0.87;67.65;101106.37;1767372;79;21234;-54
2021/12/30 08:46:47;;;;;;;42.25;23.75;;;;;;;0.90;67.58;101108.39;1757339;80;21207;-54
2021/12/30 08:49:54;;;;;;;41.25;22.87;;;;;;;0.96;67.38;101107.13;1749963;81;21208;-53
2021/12/30 08:53:01;;;;;;;41.45;24.23;;;;;;;1.01;67.18;101098.27;1762481;81;21349;-54
2021/12/30 08:56:06;;;;;;;42.20;22.60;;;;;;;1.04;66.92;101105.69;1770526;80;21237;-54
2021/12/30 08:59:13;;;;;;;44.27;23.40;;;;;;;1.08;66.59;101104.50;1774254;79;21699;-54
2021/12/30 09:02:20;;;;;;;35.58;20.52;;;;;;;1.08;66.25;101113.94;1770433;80;21707;-55
2021/12/30 09:05:27;;;;;;;40.92;21.62;;;;;;;1.00;65.88;101110.87;1769317;79;22230;-55
2021/12/30 09:08:33;;;;;;;35.98;21.05;;;;;;;1.00;65.87;101111.37;1792866;79;21192;-55
2021/12/30 09:11:42;;;;;;;41.53;22.25;;;;;;;1.02;65.72;101105.38;1788697;79;21204;-56
2021/12/30 09:14:49;;;;;;;40.92;21.82;;;;;;;1.08;65.87;101100.46;1794026;79;22030;-56
2021/12/30 09:17:54;;;;;;;39.70;22.22;;;;;;;1.14;65.47;101101.91;1789624;79;21693;-55
2021/12/30 09:20:59;;;;;;;44.30;22.98;;;;;;;1.09;65.29;101101.34;1781036;79;21195;-55
2021/12/30 09:24:05;;;;;;;40.92;22.93;;;;;;;1.09;65.22;101094.13;1798026;79;21186;-55
2021/12/30 09:27:11;;;;;;;43.28;22.48;;;;;;;1.12;65.11;101097.09;1798498;78;21477;-55
2021/12/30 09:30:19;;;;;;;36.33;20.68;;;;;;;1.12;65.03;101090.36;1772511;80;21721;-55
2021/12/30 09:33:26;;;;;;;35.65;21.48;;;;;;;1.18;64.82;101100.73;1745780;81;21747;-55
2021/12/30 09:36:30;;;;;;;40.78;23.18;;;;;;;1.22;64.76;101091.00;1762640;81;21270;-55
2021/12/30 09:39:36;;;;;;;38.30;21.62;;;;;;;1.26;64.52;101092.55;1753487;81;21452;-56
2021/12/30 09:42:44;;;;;;;38.78;21.82;;;;;;;1.30;64.52;101081.92;1785961;79;21522;-56
2021/12/30 09:45:50;;;;;;;39.35;21.33;;;;;;;1.35;64.21;101091.06;1770341;80;21239;-56
2021/12/30 09:48:57;;;;;;;39.03;21.25;;;;;;;1.28;63.97;101092.44;1805089;79;21200;-56
2021/12/30 09:52:05;;;;;;;37.65;22.87;;;;;;;1.23;64.12;101097.27;1804829;79;21301;-56
2021/12/30 09:55:10;;;;;;;40.05;22.15;;;;;;;1.19;64.08;101093.89;1757681;81;21189;-55
2021/12/30 09:58:18;;;;;;;40.55;22.65;;;;;;;1.17;64.27;101092.28;1760342;80;21224;-55
2021/12/30 10:01:24;;;;;;;43.13;24.02;;;;;;;1.11;64.24;101093.52;1693696;83;21231;-54
2021/12/30 10:04:38;;;;;;;36.93;22.07;;;;;;;1.05;64.26;101089.00;1783186;79;21195;-54
2021/12/30 10:07:44;;;;;;;40.20;22.07;;;;;;;1.05;64.52;101088.53;1776935;79;21750;-55
2021/12/30 10:10:58;;;;;;;48.33;25.90;;;;;;;1.12;64.64;101084.96;1763697;80;21264;-54
2021/12/30 10:14:08;;;;;;;43.02;25.52;;;;;;;1.13;64.51;101090.25;1752735;79;21221;-55
2021/12/30 10:17:28;;;;;;;46.20;25.55;;;;;;;1.14;64.68;101090.63;1739302;81;21212;-55
2021/12/30 10:20:39;;;;;;;43.63;22.98;;;;;;;1.20;64.63;101083.98;1753964;81;21740;-56
2021/12/30 10:23:43;;;;;;;37.35;21.90;;;;;;;1.20;64.61;101083.98;1762921;80;21195;-55
2021/12/30 10:27:05;;;;;;;40.95;23.00;;;;;;;1.21;64.39;101076.27;1723532;81;21196;-56
2021/12/30 10:30:11;;;;;;;45.58;24.25;;;;;;;1.20;64.46;101072.73;1762124;80;21864;-59
2021/12/30 10:33:26;;;;;;;41.23;22.75;;;;;;;1.24;64.45;101072.02;1744023;81;21168;-55
2021/12/30 10:36:41;;;;;;;40.63;22.85;;;;;;;1.25;64.58;101074.61;1781166;80;21223;-55
2021/12/30 10:39:48;;;;;;;34.70;20.77;;;;;;;1.28;64.54;101069.05;1765110;80;21171;-55
2021/12/30 10:42:52;;;;;;;36.30;21.27;;;;;;;1.33;64.28;101071.44;1780778;80;21178;-55
2021/12/30 10:46:30;;;;;;;35.28;19.92;;;;;;;1.38;64.07;101063.88;1787091;79;21719;-54
2021/12/30 10:49:37;;;;;;;49.00;26.55;;;;;;;1.42;63.71;101066.30;1768408;79;21762;-54
2021/12/30 10:52:54;;;;;;;50.08;29.23;;;;;;;1.40;63.51;101061.48;1762758;80;21194;-55
2021/12/30 10:55:59;;;;;;;41.50;27.07;;;;;;;1.35;63.39;101069.01;1750652;81;21378;-55
2021/12/30 10:59:22;;;;;;;39.15;25.43;;;;;;;1.29;63.32;101059.11;1717597;83;21679;-55
2021/12/30 11:02:29;;;;;;;41.50;24.80;;;;;;;1.20;63.32;101060.59;1697991;83;21237;-54
2021/12/30 11:05:37;;;;;;;39.13;23.42;;;;;;;1.09;63.46;101059.08;1759212;81;22094;-54
2021/12/30 11:08:42;;;;;;;44.05;25.32;;;;;;;1.04;63.64;101069.29;1759735;79;21264;-55
2021/12/30 11:11:58;;;;;;;37.88;23.18;;;;;;;0.98;63.59;101066.97;1702463;81;21554;-55
2021/12/30 11:15:27;;;;;;;43.58;26.60;;;;;;;0.91;63.84;101068.34;1657597;83;21399;-55
2021/12/30 11:18:47;;;;;;;43.50;24.70;;;;;;;0.86;64.02;101067.77;1736637;81;21223;-55
2021/12/30 11:21:52;;;;;;;42.20;26.77;;;;;;;0.83;64.25;101070.66;1749975;81;21218;-55
2021/12/30 11:25:01;;;;;;;47.30;27.75;;;;;;;0.88;64.62;101079.79;1746925;82;21199;-56
2021/12/30 11:28:07;;;;;;;49.08;27.82;;;;;;;0.89;64.67;101078.34;1754689;80;21156;-56
2021/12/30 11:31:14;;;;;;;43.63;26.40;;;;;;;0.97;64.82;101081.42;1755708;80;21302;-56
2021/12/30 11:34:20;;;;;;;50.20;29.80;;;;;;;1.02;64.71;101077.95;1763944;80;21203;-56
2021/12/30 11:37:26;;;;;;;54.88;28.87;;;;;;;0.99;64.70;101086.23;1750425;82;21238;-55
2021/12/30 11:40:34;;;;;;;56.88;30.50;;;;;;;1.03;64.86;101072.09;1752407;80;21752;-55
2021/12/30 11:43:51;;;;;;;55.08;30.60;;;;;;;1.12;65.05;101070.13;1750591;80;21234;-56
2021/12/30 11:46:57;;;;;;;54.05;30.17;;;;;;;1.22;64.97;101077.52;1744232;80;21328;-55
2021/12/30 11:50:20;;;;;;;64.00;32.55;;;;;;;1.25;64.80;101075.96;1750095;82;22015;-55
2021/12/30 11:53:33;;;;;;;54.63;28.98;;;;;;;1.29;64.85;101076.16;1755476;80;21250;-55
2021/12/30 11:56:39;;;;;;;61.70;30.45;;;;;;;1.33;64.72;101077.67;1749037;82;21195;-56
2021/12/30 11:59:50;;;;;;;48.60;26.97;;;;;;;1.33;64.55;101090.31;1732955;80;21826;-56
2021/12/30 12:02:59;;;;;;;40.43;25.17;;;;;;;1.32;64.59;101096.66;1721476;82;21746;-54
2021/12/30 12:06:04;;;;;;;41.95;24.27;;;;;;;1.32;64.35;101098.01;1773580;80;21572;-54
2021/12/30 12:09:32;;;;;;;37.17;22.58;;;;;;;1.22;64.13;101107.17;1730497;81;21260;-55
2021/12/30 12:12:40;;;;;;;38.53;22.37;;;;;;;1.12;64.13;101102.48;1721767;82;21209;-54
2021/12/30 12:15:50;;;;;;;34.85;21.75;;;;;;;1.06;64.24;101094.30;1734097;82;21220;-56
2021/12/30 12:19:14;;;;;;;39.25;22.62;;;;;;;1.02;64.36;101096.81;1777638;80;21194;-55
2021/12/30 12:22:30;;;;;;;36.65;22.17;;;;;;;1.02;64.44;101098.17;1800421;79;21241;-55
2021/12/30 12:25:36;;;;;;;41.00;23.60;;;;;;;1.02;64.60;101107.60;1787262;80;21258;-55
2021/12/30 12:28:42;;;;;;;44.08;24.37;;;;;;;1.02;64.55;101108.95;1773960;79;21207;-57
2021/12/30 12:32:10;;;;;;;43.50;26.40;;;;;;;0.97;64.52;101115.58;1736826;82;21284;-56
2021/12/30 12:35:29;;;;;;;47.78;28.52;;;;;;;0.90;64.65;101114.26;1766291;80;21221;-54
2021/12/30 12:38:57;;;;;;;54.33;33.83;;;;;;;0.79;64.76;101114.94;1768217;80;21177;-54
2021/12/30 12:42:06;;;;;;;42.38;25.45;;;;;;;0.69;65.03;101115.13;1725142;82;21245;-54
2021/12/30 12:45:36;;;;;;;43.75;25.72;;;;;;;0.63;65.39;101104.73;1726788;82;21218;-55
2021/12/30 12:48:44;;;;;;;42.62;25.92;;;;;;;0.65;65.68;101105.98;1726681;82;21284;-55
2021/12/30 12:52:02;;;;;;;46.08;26.48;;;;;;;0.67;65.89;101106.27;1742131;81;21248;-55
2021/12/30 12:55:13;;;;;;;48.23;25.65;;;;;;;0.67;65.95;101095.48;1764147;80;21311;-55
2021/12/30 12:58:19;;;;;;;45.73;25.95;;;;;;;0.69;65.92;101097.61;1749893;81;21217;-55
2021/12/30 13:01:31;;;;;;;48.15;26.40;;;;;;;0.67;65.78;101096.83;1732264;82;21192;-56
2021/12/30 13:04:36;;;;;;;42.70;25.90;;;;;;;0.62;65.87;101098.94;1740789;81;21168;-56
2021/12/30 13:07:44;;;;;;;53.17;30.45;;;;;;;0.62;65.98;101100.29;1753245;80;21195;-56
2021/12/30 13:10:53;;;;;;;52.65;30.77;;;;;;;0.62;66.00;101107.02;1749832;79;21204;-57
2021/12/30 13:13:59;;;;;;;55.20;30.32;;;;;;;0.60;65.94;101098.20;1752806;81;21413;-56
2021/12/30 13:17:11;;;;;;;51.50;29.98;;;;;;;0.55;65.76;101101.66;1696934;84;21227;-55
2021/12/30 13:20:18;;;;;;;46.70;25.52;;;;;;;0.52;66.09;101103.19;1696945;84;21221;-56
2021/12/30 13:23:39;;;;;;;51.15;29.42;;;;;;;0.50;66.11;101104.23;1658988;84;21429;-55
2021/12/30 13:26:46;;;;;;;76.45;40.23;;;;;;;0.47;66.11;101101.73;1685855;83;21263;-55
2021/12/30 13:30:00;;;;;;;58.45;33.73;;;;;;;0.43;66.37;101106.94;1707832;81;21224;-56
2021/12/30 13:33:07;;;;;;;56.92;31.42;;;;;;;0.40;66.46;101103.93;1775606;80;21195;-56
2021/12/30 13:36:23;;;;;;;47.75;28.02;;;;;;;0.34;66.35;101100.27;1785322;79;21221;-55
2021/12/30 13:39:35;;;;;;;59.13;31.17;;;;;;;0.30;66.57;101110.86;1763781;81;21158;-56
2021/12/30 13:42:43;;;;;;;53.15;31.68;;;;;;;0.27;66.62;101119.59;1744924;81;21329;-55
2021/12/30 13:46:14;;;;;;;56.40;31.70;;;;;;;0.24;66.94;101130.05;1752254;80;21234;-55
2021/12/30 13:49:23;;;;;;;53.25;29.65;;;;;;;0.23;67.13;101124.28;1762555;80;21171;-55
2021/12/30 13:52:32;;;;;;;60.43;32.42;;;;;;;0.19;66.97;101121.87;1768589;79;21213;-55
2021/12/30 13:56:03;;;;;;;69.42;38.42;;;;;;;0.17;67.34;101130.05;1691256;79;21209;-54
2021/12/30 13:59:15;;;;;;;56.85;30.48;;;;;;;0.16;67.55;101124.25;1739136;81;21229;-54
2021/12/30 14:02:21;;;;;;;70.28;37.17;;;;;;;0.17;67.73;101127.36;1763181;80;21182;-54
2021/12/30 14:05:30;;;;;;;65.32;33.67;;;;;;;0.19;67.94;101121.87;1753802;79;21382;-55
2021/12/30 14:08:37;;;;;;;78.17;40.63;;;;;;;0.23;68.05;101122.95;1748379;79;21190;-54
2021/12/30 14:11:53;;;;;;;68.55;37.17;;;;;;;0.28;67.98;101122.19;1779588;78;22050;-55
2021/12/30 14:14:58;;;;;;;77.12;40.25;;;;;;;0.24;67.76;101122.47;1808540;79;21191;-54
2021/12/30 14:18:10;;;;;;;71.22;36.68;;;;;;;0.18;67.74;101128.20;1812658;79;21177;-54
2021/12/30 14:21:18;;;;;;;90.62;44.48;;;;;;;0.19;67.97;101128.11;1814213;79;21443;-54